createdAt,value
2022-12-20T00:02:15.525Z,101270.66
2022-12-20T00:04:47.339Z,101279.25
2022-12-20T00:07:19.181Z,101275.63
2022-12-20T00:09:50.682Z,101278.09
2022-12-20T00:12:22.510Z,101260.47
2022-12-20T00:14:54.424Z,101265.25
2022-12-20T00:17:26.000Z,101268.22
2022-12-20T00:19:57.848Z,101264.59
2022-12-20T00:22:29.379Z,101263.28
2022-12-20T00:25:01.202Z,101264.28
2022-12-20T00:27:32.709Z,101273.84
2022-12-20T00:30:04.573Z,101262.97
2022-12-20T00:32:36.080Z,101252.41
2022-12-20T00:35:07.957Z,101240.88
2022-12-20T00:37:39.548Z,101239.91
2022-12-20T00:40:11.465Z,101231.00
2022-12-20T00:42:42.977Z,101248.63
2022-12-20T00:45:14.792Z,101246.16
2022-12-20T00:47:46.351Z,101246.00
2022-12-20T00:50:18.228Z,101243.69
2022-12-20T00:52:49.717Z,101250.09
2022-12-20T00:55:21.571Z,101250.09
2022-12-20T00:57:53.081Z,101245.16
2022-12-20T01:00:24.898Z,101241.38
2022-12-20T01:02:56.534Z,101238.06
2022-12-20T01:05:28.492Z,101254.38
2022-12-20T01:08:00.157Z,101239.56
2022-12-20T01:10:31.954Z,101244.66
2022-12-20T01:13:03.450Z,101238.56
2022-12-20T01:15:35.287Z,101245.16
2022-12-20T01:18:06.811Z,101242.69
2022-12-20T01:20:38.699Z,101241.03
2022-12-20T01:23:10.280Z,101249.78
2022-12-20T01:25:42.197Z,101250.44
2022-12-20T01:28:13.762Z,101249.28
2022-12-20T01:30:45.652Z,101246.50
2022-12-20T01:33:17.166Z,101236.13
2022-12-20T01:35:49.029Z,101238.75
2022-12-20T01:38:20.549Z,101246.50
2022-12-20T01:40:52.483Z,101238.41
2022-12-20T01:43:23.983Z,101229.19
2022-12-20T01:45:55.937Z,101231.16
2022-12-20T01:48:27.547Z,101228.03
2022-12-20T01:50:59.389Z,101213.88
2022-12-20T01:53:30.902Z,101220.13
2022-12-20T01:56:02.714Z,101218.97
2022-12-20T01:58:34.220Z,101226.06
2022-12-20T02:01:06.138Z,101218.00
2022-12-20T02:03:37.723Z,101218.66
2022-12-20T02:06:09.627Z,101227.22
2022-12-20T02:08:41.145Z,101215.69
2022-12-20T02:11:12.982Z,101209.47
2022-12-20T02:13:44.488Z,101208.97
2022-12-20T02:16:16.440Z,101217.88
2022-12-20T02:18:47.998Z,101221.97
2022-12-20T02:21:20.053Z,101222.97
2022-12-20T02:23:51.574Z,101217.22
2022-12-20T02:26:23.398Z,101211.94
2022-12-20T02:28:57.383Z,101220.34
2022-12-20T02:31:29.289Z,101216.88
2022-12-20T02:34:00.935Z,101198.41
2022-12-20T02:36:32.751Z,101211.94
2022-12-20T02:39:04.274Z,101197.41
2022-12-20T02:41:36.075Z,101190.50
2022-12-20T02:44:26.123Z,101194.28
2022-12-20T02:46:57.945Z,101109.38
2022-12-20T02:49:29.461Z,101189.50
2022-12-20T02:52:01.301Z,101180.44
2022-12-20T02:54:32.796Z,101176.47
2022-12-20T02:57:04.527Z,101174.00
2022-12-20T02:59:36.042Z,101177.97
2022-12-20T03:02:07.991Z,101170.72
2022-12-20T03:04:39.667Z,101187.03
2022-12-20T03:07:11.489Z,101166.09
2022-12-20T03:09:43.005Z,101157.50
2022-12-20T03:12:16.377Z,101155.84
2022-12-20T03:14:47.888Z,101157.84
2022-12-20T03:17:19.757Z,101156.69
2022-12-20T03:19:51.368Z,101158.00
2022-12-20T03:22:23.833Z,101152.19
2022-12-20T03:24:55.368Z,100974.81
2022-12-20T03:27:28.500Z,101162.28
2022-12-20T03:30:00.103Z,101152.72
2022-12-20T03:32:31.936Z,101141.81
2022-12-20T03:35:03.491Z,101141.00
2022-12-20T03:37:35.348Z,101145.94
2022-12-20T03:40:06.865Z,101157.16
2022-12-20T03:42:38.826Z,101169.53
2022-12-20T03:45:10.608Z,100904.84
2022-12-20T03:47:42.448Z,101171.66
2022-12-20T03:50:14.005Z,101173.47
2022-12-20T03:52:45.868Z,101172.47
2022-12-20T03:55:17.412Z,101166.03
2022-12-20T03:57:49.257Z,100948.94
2022-12-20T04:00:20.759Z,101158.75
2022-12-20T04:02:52.654Z,101152.84
2022-12-20T04:05:24.409Z,101146.06
2022-12-20T04:07:56.300Z,101160.94
2022-12-20T04:10:27.849Z,101171.31
2022-12-20T04:12:59.368Z,101172.13
2022-12-20T04:15:30.942Z,101172.31
2022-12-20T04:18:02.965Z,101170.66
2022-12-20T04:20:34.850Z,101165.22
2022-12-20T04:23:06.364Z,101153.47
2022-12-20T04:25:38.264Z,101145.75
2022-12-20T04:28:09.781Z,101144.25
2022-12-20T04:30:41.372Z,101149.22
2022-12-20T04:33:12.886Z,101150.53
2022-12-20T04:35:45.042Z,101140.81
2022-12-20T04:38:16.583Z,101140.00
2022-12-20T04:40:48.464Z,101143.97
2022-12-20T04:43:20.234Z,101156.50
2022-12-20T04:45:52.958Z,101147.63
2022-12-20T04:51:18.924Z,101129.66
2022-12-20T04:53:50.435Z,101134.75
2022-12-20T04:56:22.460Z,101134.09
2022-12-20T04:58:53.975Z,101142.69
2022-12-20T05:01:25.924Z,101147.94
2022-12-20T05:03:57.745Z,101134.59
2022-12-20T05:06:29.842Z,101138.22
2022-12-20T05:09:01.466Z,101129.31
2022-12-20T05:11:33.409Z,101133.78
2022-12-20T05:14:04.923Z,101129.66
2022-12-20T05:16:37.883Z,101135.75
2022-12-20T05:19:09.448Z,101142.84
2022-12-20T05:21:59.764Z,101149.59
2022-12-20T05:24:49.902Z,101140.53
2022-12-20T05:27:21.468Z,101142.00
2022-12-20T05:29:53.038Z,101127.81
2022-12-20T05:32:24.585Z,101131.44
2022-12-20T05:34:56.311Z,101117.44
2022-12-20T05:37:27.837Z,101124.53
2022-12-20T05:39:59.352Z,101119.25
2022-12-20T05:42:30.867Z,101121.53
2022-12-20T05:45:03.703Z,101118.41
2022-12-20T05:47:35.320Z,101126.97
2022-12-20T05:50:09.257Z,101109.81
2022-12-20T05:52:42.603Z,101115.72
2022-12-20T05:55:14.497Z,101117.56
2022-12-20T05:57:46.018Z,101117.22
2022-12-20T06:00:17.943Z,101110.75
2022-12-20T06:02:49.631Z,101109.78
2022-12-20T06:05:21.743Z,101110.25
2022-12-20T06:07:53.301Z,101106.31
2022-12-20T06:10:25.216Z,101103.16
2022-12-20T06:12:56.774Z,101113.53
2022-12-20T06:15:28.630Z,101107.91
2022-12-20T06:18:00.162Z,101126.41
2022-12-20T06:20:31.944Z,101128.69
2022-12-20T06:23:03.515Z,101149.47
2022-12-20T06:25:35.285Z,101132.66
2022-12-20T06:28:07.652Z,101138.09
2022-12-20T06:30:39.210Z,101134.94
2022-12-20T06:33:10.757Z,101124.38
2022-12-20T06:35:42.596Z,101128.84
2022-12-20T06:38:14.119Z,101132.31
2022-12-20T06:40:45.710Z,101137.41
2022-12-20T06:43:17.244Z,100866.81
2022-12-20T06:45:49.228Z,101136.59
2022-12-20T06:48:21.349Z,101137.75
2022-12-20T06:50:56.162Z,101142.22
2022-12-20T06:53:28.013Z,101140.41
2022-12-20T06:55:59.874Z,101150.78
2022-12-20T06:58:31.482Z,101136.59
2022-12-20T07:01:03.389Z,101137.94
2022-12-20T07:03:34.978Z,101143.03
2022-12-20T07:06:06.624Z,101151.63
2022-12-20T07:08:38.157Z,101145.81
2022-12-20T07:11:09.728Z,101132.44
2022-12-20T07:13:41.548Z,101135.22
2022-12-20T07:16:13.245Z,101134.22
2022-12-20T07:18:45.686Z,101140.31
2022-12-20T07:21:17.548Z,101142.47
2022-12-20T07:23:49.459Z,101150.41
2022-12-20T07:26:21.057Z,101148.41
2022-12-20T07:28:52.956Z,101144.41
2022-12-20T07:31:24.530Z,101146.06
2022-12-20T07:33:56.614Z,101154.34
2022-12-20T07:36:28.214Z,101156.63
2022-12-20T07:39:00.097Z,101161.56
2022-12-20T07:41:31.641Z,101160.41
2022-12-20T07:44:03.505Z,101154.94
2022-12-20T07:46:35.026Z,101161.06
2022-12-20T07:49:07.174Z,101169.97
2022-12-20T07:51:38.678Z,101168.47
2022-12-20T07:54:10.578Z,101175.41
2022-12-20T07:56:42.278Z,101169.94
2022-12-20T07:59:14.224Z,101166.47
2022-12-20T08:01:46.880Z,101171.41
2022-12-20T08:04:18.895Z,101166.94
2022-12-20T08:06:50.388Z,101169.75
2022-12-20T08:09:21.933Z,101168.59
2022-12-20T08:11:53.485Z,101169.06
2022-12-20T08:14:25.003Z,101174.66
2022-12-20T08:16:56.560Z,101177.97
2022-12-20T08:19:32.232Z,101173.84
2022-12-20T08:22:04.872Z,101172.69
2022-12-20T08:24:36.489Z,101164.41
2022-12-20T08:27:08.317Z,101160.41
2022-12-20T08:29:39.997Z,101160.41
2022-12-20T08:32:13.513Z,101158.78
2022-12-20T08:34:45.142Z,101151.13
2022-12-20T08:37:17.019Z,101151.13
2022-12-20T08:39:48.528Z,101141.56
2022-12-20T08:42:20.401Z,101142.03
2022-12-20T08:44:51.918Z,101145.44
2022-12-20T08:47:23.653Z,101144.50
2022-12-20T08:49:55.172Z,101154.06
2022-12-20T08:52:27.081Z,101154.91
2022-12-20T08:55:01.449Z,101156.72
2022-12-20T08:57:33.947Z,101160.66
2022-12-20T09:00:05.537Z,101162.41
2022-12-20T09:02:38.838Z,101148.09
2022-12-20T09:05:10.544Z,101147.38
2022-12-20T09:07:42.083Z,101147.34
2022-12-20T09:10:14.751Z,101142.28
2022-12-20T09:12:46.305Z,101141.44
2022-12-20T09:15:17.816Z,101130.78
2022-12-20T09:17:49.515Z,101141.38
2022-12-20T09:20:21.040Z,101133.00
2022-12-20T09:22:52.962Z,101134.28
2022-12-20T09:25:24.494Z,101136.09
2022-12-20T09:27:56.872Z,101137.00
2022-12-20T09:30:28.423Z,101140.44
2022-12-20T09:33:10.115Z,101147.00
2022-12-20T09:35:41.954Z,101142.44
2022-12-20T09:38:13.688Z,101125.72
2022-12-20T09:40:45.265Z,101127.81
2022-12-20T09:43:17.076Z,101128.81
2022-12-20T09:45:48.609Z,101128.53
2022-12-20T09:48:20.552Z,101118.06
2022-12-20T09:50:52.111Z,101118.81
2022-12-20T09:53:23.817Z,101118.25
2022-12-20T09:55:55.507Z,101120.72
2022-12-20T09:58:27.419Z,101120.03
2022-12-20T10:00:59.039Z,101117.38
2022-12-20T10:03:30.762Z,101123.09
2022-12-20T10:06:02.586Z,101115.97
2022-12-20T10:08:34.415Z,101117.81
2022-12-20T10:11:06.060Z,101123.44
2022-12-20T10:13:37.970Z,101126.66
2022-12-20T10:16:09.695Z,101126.34
2022-12-20T10:18:41.781Z,101125.19
2022-12-20T10:21:13.527Z,101128.72
2022-12-20T10:23:45.466Z,101114.97
2022-12-20T10:26:17.023Z,101115.97
2022-12-20T10:28:53.856Z,101108.28
2022-12-20T10:31:26.145Z,101109.91
2022-12-20T10:33:57.833Z,101095.44
2022-12-20T10:36:29.503Z,101082.94
2022-12-20T10:39:01.211Z,101075.28
2022-12-20T10:41:32.786Z,101063.66
2022-12-20T10:44:04.336Z,101076.13
2022-12-20T10:46:36.038Z,101069.75
2022-12-20T10:49:07.931Z,101064.53
2022-12-20T10:51:39.465Z,101044.19
2022-12-20T10:54:11.011Z,101050.13
2022-12-20T10:56:42.576Z,101043.56
2022-12-20T10:59:14.135Z,101037.03
2022-12-20T11:01:46.159Z,101040.44
2022-12-20T11:04:17.879Z,101033.50
2022-12-20T11:06:49.495Z,101034.84
2022-12-20T11:09:21.296Z,101030.22
2022-12-20T11:11:52.864Z,101022.84
2022-12-20T11:14:24.426Z,101012.56
2022-12-20T11:16:56.778Z,101006.41
2022-12-20T11:19:28.373Z,101013.44
2022-12-20T11:21:59.924Z,101007.69
2022-12-20T11:24:31.741Z,101012.59
2022-12-20T11:27:03.270Z,101008.56
2022-12-20T11:29:34.949Z,101002.03
2022-12-20T11:32:06.474Z,100991.09
2022-12-20T11:34:38.117Z,100989.50
2022-12-20T11:37:10.686Z,100987.28
2022-12-20T11:39:42.253Z,100987.84
2022-12-20T11:42:14.653Z,100986.31
2022-12-20T11:44:53.875Z,100983.03
2022-12-20T11:47:29.451Z,100972.31
2022-12-20T11:50:01.036Z,100969.69
2022-12-20T11:52:33.163Z,100960.25
2022-12-20T11:55:04.871Z,100970.16
2022-12-20T11:58:01.748Z,100972.25
2022-12-20T12:00:28.298Z,100974.47
2022-12-20T12:03:01.032Z,100972.25
2022-12-20T12:05:33.087Z,100975.00
2022-12-20T12:08:04.676Z,100975.63
2022-12-20T12:10:36.589Z,100974.81
2022-12-20T12:13:08.201Z,100969.69
2022-12-20T12:15:40.191Z,100977.91
2022-12-20T12:18:11.713Z,100971.22
2022-12-20T12:20:44.502Z,100961.34
2022-12-20T12:23:16.055Z,100952.72
2022-12-20T12:25:47.932Z,100956.41
2022-12-20T12:28:19.482Z,100945.91
2022-12-20T12:30:51.213Z,100955.56
2022-12-20T12:33:25.754Z,100945.97
2022-12-20T12:35:57.837Z,100940.88
2022-12-20T12:38:29.370Z,100935.56
2022-12-20T12:41:01.311Z,100930.69
2022-12-20T12:43:32.833Z,100933.06
2022-12-20T12:46:08.370Z,100929.91
2022-12-20T12:48:42.526Z,100921.75
2022-12-20T12:51:14.439Z,100925.34
2022-12-20T12:53:45.952Z,100921.13
2022-12-20T12:56:42.119Z,100909.06
2022-12-20T12:59:10.002Z,100912.31
2022-12-20T13:01:41.651Z,100913.09
2022-12-20T13:04:13.528Z,100909.16
2022-12-20T13:06:45.049Z,100909.44
2022-12-20T13:09:16.947Z,100810.72
2022-12-20T13:11:52.341Z,100900.56
2022-12-20T13:14:29.398Z,100908.09
2022-12-20T13:17:19.527Z,100903.34
2022-12-20T13:19:52.451Z,100905.22
2022-12-20T13:22:24.043Z,100895.13
2022-12-20T13:24:58.676Z,100894.03
2022-12-20T13:27:30.286Z,100896.88
2022-12-20T13:30:02.692Z,100894.03
2022-12-20T13:32:34.318Z,100899.22
2022-12-20T13:35:06.179Z,100903.84
2022-12-20T13:37:37.820Z,100904.03
2022-12-20T13:40:09.630Z,100911.16
2022-12-20T13:42:41.152Z,100905.59
2022-12-20T13:45:12.982Z,100909.44
2022-12-20T13:47:44.544Z,100906.59
2022-12-20T13:50:16.448Z,100905.53
2022-12-20T13:52:47.983Z,100901.25
2022-12-20T13:55:19.716Z,100900.63
2022-12-20T13:57:51.213Z,100909.34
2022-12-20T14:03:04.974Z,100907.63
2022-12-20T14:05:36.610Z,100903.97
2022-12-20T14:08:08.215Z,100908.41
2022-12-20T14:10:40.076Z,100903.28
2022-12-20T14:13:11.591Z,100892.25
2022-12-20T14:15:43.443Z,100886.56
2022-12-20T14:18:14.957Z,100895.72
2022-12-20T14:20:46.807Z,100884.06
2022-12-20T14:23:18.405Z,100884.25
2022-12-20T14:25:49.961Z,100878.97
2022-12-20T14:28:27.018Z,100881.38
2022-12-20T14:30:59.531Z,100885.84
2022-12-20T14:33:31.143Z,100880.94
2022-12-20T14:36:03.033Z,100876.63
2022-12-20T14:38:34.549Z,100876.00
2022-12-20T14:41:06.086Z,100866.22
2022-12-20T14:43:37.894Z,100873.09
2022-12-20T14:46:09.594Z,100879.03
2022-12-20T14:48:41.208Z,100871.00
2022-12-20T14:51:12.864Z,100878.53
2022-12-20T14:53:44.355Z,100878.34
2022-12-20T14:56:15.940Z,100863.25
2022-12-20T14:58:47.470Z,100858.34
2022-12-20T15:01:19.505Z,100861.19
2022-12-20T15:03:51.541Z,100864.03
2022-12-20T15:06:23.528Z,100875.00
2022-12-20T15:08:55.080Z,100859.09
2022-12-20T15:11:26.608Z,100848.88
2022-12-20T15:13:59.042Z,100851.72
2022-12-20T15:16:30.987Z,100860.69
2022-12-20T15:19:02.657Z,100863.91
2022-12-20T15:21:34.222Z,100852.06
2022-12-20T15:24:08.094Z,100845.84
2022-12-20T15:26:39.687Z,100846.31
2022-12-20T15:29:11.284Z,100849.50
2022-12-20T15:31:43.101Z,100836.84
2022-12-20T15:34:14.671Z,100827.00
2022-12-20T15:36:46.810Z,100834.75
2022-12-20T15:39:18.407Z,100823.72
2022-12-20T15:41:50.461Z,100818.22
2022-12-20T15:44:22.034Z,100822.72
2022-12-20T15:46:53.824Z,100820.63
2022-12-20T15:49:25.411Z,100817.41
2022-12-20T15:51:57.440Z,100813.88
2022-12-20T15:54:29.179Z,100819.63
2022-12-20T15:57:03.304Z,100816.41
2022-12-20T16:02:27.259Z,100812.06
2022-12-20T16:04:59.253Z,100812.25
2022-12-20T16:07:31.375Z,100812.88
2022-12-20T16:10:03.618Z,100814.25
2022-12-20T16:12:35.246Z,100803.50
2022-12-20T16:15:08.179Z,100805.69
2022-12-20T16:17:40.161Z,100799.59
2022-12-20T16:20:11.665Z,100795.66
2022-12-20T16:22:43.559Z,100798.31
2022-12-20T16:25:19.946Z,100794.03
2022-12-20T16:27:51.900Z,100792.66
2022-12-20T16:30:23.822Z,100802.16
2022-12-20T16:32:55.420Z,100790.94
2022-12-20T16:35:27.802Z,100785.47
2022-12-20T16:37:59.342Z,100777.53
2022-12-20T16:40:31.262Z,100774.25
2022-12-20T16:43:02.930Z,100788.66
2022-12-20T16:45:35.155Z,100786.19
2022-12-20T16:48:06.706Z,100783.06
2022-12-20T16:50:43.602Z,100778.59
2022-12-20T16:53:15.637Z,100775.78
2022-12-20T16:55:47.533Z,100777.63
2022-12-20T16:58:19.047Z,100776.13
2022-12-20T17:00:51.525Z,100771.66
2022-12-20T17:03:23.355Z,100779.88
2022-12-20T17:05:57.625Z,100777.34
2022-12-20T17:11:18.558Z,100780.34
2022-12-20T17:13:50.101Z,100774.59
2022-12-20T17:16:21.731Z,100774.16
2022-12-20T17:18:53.284Z,100763.66
2022-12-20T17:21:26.703Z,100755.63
2022-12-20T17:23:58.234Z,100742.84
2022-12-20T17:26:30.093Z,100735.91
2022-12-20T17:29:01.679Z,100754.72
2022-12-20T17:31:39.715Z,100771.84
2022-12-20T17:34:11.304Z,100777.22
2022-12-20T17:36:43.154Z,100776.00
2022-12-20T17:39:14.664Z,100774.63
2022-12-20T17:41:46.532Z,100775.88
2022-12-20T17:44:18.160Z,100780.59
2022-12-20T17:46:49.979Z,100795.72
2022-12-20T17:49:23.090Z,100784.94
2022-12-20T17:51:56.398Z,100783.31
2022-12-20T17:54:32.015Z,100770.06
2022-12-20T17:57:08.603Z,100766.78
2022-12-20T17:59:40.197Z,100764.34
2022-12-20T18:02:12.124Z,100763.13
2022-12-20T18:04:44.800Z,100763.50
2022-12-20T18:07:16.679Z,100771.69
2022-12-20T18:09:48.265Z,100781.22
2022-12-20T18:12:20.249Z,100769.44
2022-12-20T18:14:51.804Z,100770.44
2022-12-20T18:17:23.625Z,100764.13
2022-12-20T18:19:55.772Z,100771.34
2022-12-20T18:22:27.657Z,100763.13
2022-12-20T18:24:59.270Z,100762.13
2022-12-20T18:27:31.453Z,100765.53
2022-12-20T18:30:03.503Z,100766.16
2022-12-20T18:32:35.401Z,100766.94
2022-12-20T18:35:06.951Z,100764.53
2022-12-20T18:37:38.879Z,100762.19
2022-12-20T18:40:10.442Z,100772.78
2022-12-20T18:42:42.007Z,100764.28
2022-12-20T18:45:13.533Z,100767.94
2022-12-20T18:47:45.382Z,100760.38
2022-12-20T18:50:16.943Z,100769.75
2022-12-20T18:52:48.806Z,100769.31
2022-12-20T18:55:20.347Z,100766.25
2022-12-20T18:57:51.874Z,100754.00
2022-12-20T19:00:23.404Z,100749.91
2022-12-20T19:02:59.669Z,100751.19
2022-12-20T19:05:31.297Z,100750.94
2022-12-20T19:08:03.218Z,100738.91
2022-12-20T19:10:34.813Z,100743.75
2022-12-20T19:13:06.387Z,100745.38
2022-12-20T19:15:38.064Z,100758.00
2022-12-20T19:18:09.755Z,100754.72
2022-12-20T19:20:41.357Z,100752.94
2022-12-20T19:23:12.954Z,100751.88
2022-12-20T19:25:44.474Z,100752.69
2022-12-20T19:28:16.270Z,100747.13
2022-12-20T19:30:47.983Z,100740.72
2022-12-20T19:33:19.948Z,100755.72
2022-12-20T19:35:56.112Z,100750.31
2022-12-20T19:38:28.405Z,100743.38
2022-12-20T19:41:00.046Z,100755.97
2022-12-20T19:43:31.750Z,100760.69
2022-12-20T19:46:03.386Z,100752.38
2022-12-20T19:48:35.474Z,100753.56
2022-12-20T19:51:09.077Z,100753.13
2022-12-20T19:53:40.681Z,100747.47
2022-12-20T19:56:12.241Z,100739.91
2022-12-20T19:58:44.121Z,100748.91
2022-12-20T20:01:15.710Z,100752.75
2022-12-20T20:03:47.420Z,100731.97
2022-12-20T20:06:19.015Z,100731.09
2022-12-20T20:08:50.902Z,100733.34
2022-12-20T20:11:22.492Z,100741.66
2022-12-20T20:13:54.102Z,100740.84
2022-12-20T20:16:26.376Z,100735.72
2022-12-20T20:18:58.396Z,100725.78
2022-12-20T20:21:30.016Z,100729.78
2022-12-20T20:24:01.834Z,100744.03
2022-12-20T20:26:33.349Z,100743.56
2022-12-20T20:29:06.497Z,100749.69
2022-12-20T20:31:38.134Z,100737.84
2022-12-20T20:34:10.301Z,100735.00
2022-12-20T20:36:41.830Z,100723.63
2022-12-20T20:39:13.708Z,100721.59
2022-12-20T20:41:45.296Z,100719.34
2022-12-20T20:44:17.207Z,100717.50
2022-12-20T20:46:48.732Z,100712.97
2022-12-20T20:49:20.369Z,100713.34
2022-12-20T20:51:51.860Z,100720.31
2022-12-20T20:54:23.425Z,100718.03
2022-12-20T20:56:54.944Z,100711.94
2022-12-20T20:59:26.832Z,100719.19
2022-12-20T21:01:59.111Z,100718.75
2022-12-20T21:04:30.734Z,100723.22
2022-12-20T21:07:02.308Z,100711.81
2022-12-20T21:09:33.890Z,100709.38
2022-12-20T21:12:05.927Z,100703.06
2022-12-20T21:15:19.933Z,100708.63
2022-12-20T21:17:29.635Z,100708.72
2022-12-20T21:20:01.176Z,100718.47
2022-12-20T21:22:33.029Z,100717.94
2022-12-20T21:25:04.594Z,100718.28
2022-12-20T21:27:36.477Z,100717.47
2022-12-20T21:30:07.990Z,100719.56
2022-12-20T21:32:39.942Z,100713.09
2022-12-20T21:35:11.537Z,100705.53
2022-12-20T21:37:43.351Z,100693.31
2022-12-20T21:40:14.891Z,100695.59
2022-12-20T21:42:46.768Z,100706.34
2022-12-20T21:45:18.951Z,100710.63
2022-12-20T21:47:50.949Z,100706.66
2022-12-20T21:50:22.461Z,100705.34
2022-12-20T21:52:54.302Z,100702.50
2022-12-20T21:55:25.836Z,100700.63
2022-12-20T21:57:57.737Z,100695.41
2022-12-20T22:00:29.341Z,100695.59
2022-12-20T22:03:02.104Z,100689.97
2022-12-20T22:05:33.801Z,100686.31
2022-12-20T22:08:05.795Z,100681.22
2022-12-20T22:10:37.333Z,100683.69
2022-12-20T22:13:09.247Z,100689.78
2022-12-20T22:15:40.879Z,100695.25
2022-12-20T22:18:12.806Z,100694.06
2022-12-20T22:20:44.350Z,100682.28
2022-12-20T22:23:16.324Z,100687.78
2022-12-20T22:25:47.859Z,100684.56
2022-12-20T22:28:19.417Z,100672.34
2022-12-20T22:30:52.304Z,100669.34
2022-12-20T22:33:24.220Z,100660.59
2022-12-20T22:35:55.743Z,100671.78
2022-12-20T22:38:27.598Z,100667.31
2022-12-20T22:40:59.305Z,100683.81
2022-12-20T22:43:31.296Z,100680.28
2022-12-20T22:46:02.870Z,100673.81
2022-12-20T22:48:34.771Z,100676.63
2022-12-20T22:51:06.395Z,100674.00
2022-12-20T22:53:38.086Z,100672.34
2022-12-20T22:56:09.646Z,100663.69
2022-12-20T22:58:41.731Z,100665.44
2022-12-20T23:01:13.360Z,100663.00
2022-12-20T23:03:45.459Z,100664.25
2022-12-20T23:06:17.091Z,100670.34
2022-12-20T23:08:49.172Z,100665.25
2022-12-20T23:11:39.715Z,100679.09
2022-12-20T23:14:30.236Z,100668.16
2022-12-20T23:17:01.879Z,100668.72
2022-12-20T23:19:53.784Z,100675.63
2022-12-20T23:22:41.081Z,100670.34
2022-12-20T23:25:12.636Z,100656.44
2022-12-20T23:27:44.490Z,100666.19
2022-12-20T23:30:16.020Z,100674.66
2022-12-20T23:32:47.962Z,100661.66
2022-12-20T23:35:19.505Z,100661.47
2022-12-20T23:37:51.313Z,100665.28
2022-12-20T23:40:22.932Z,100656.28
2022-12-20T23:42:55.063Z,100655.66
2022-12-20T23:45:26.582Z,100655.84
2022-12-20T23:47:58.484Z,100657.72
2022-12-20T23:50:29.999Z,100652.63
2022-12-20T23:53:01.985Z,100645.25
2022-12-20T23:55:33.512Z,100633.69
2022-12-20T23:58:05.266Z,100617.84
